createdAt,value
2022-10-30T00:01:37.911Z,9.90
2022-10-30T00:04:07.374Z,9.94
2022-10-30T00:06:36.526Z,10.06
2022-10-30T00:09:05.694Z,10.02
2022-10-30T00:11:34.745Z,10.01
2022-10-30T00:14:03.939Z,9.93
2022-10-30T00:16:34.649Z,9.97
2022-10-30T00:19:03.875Z,10.05
2022-10-30T00:21:32.994Z,10.12
2022-10-30T00:24:02.028Z,10.13
2022-10-30T00:26:32.232Z,9.95
2022-10-30T00:29:01.299Z,9.87
2022-10-30T00:31:30.509Z,9.73
2022-10-30T00:34:00.979Z,9.69
2022-10-30T00:36:30.614Z,9.71
2022-10-30T00:38:59.728Z,9.62
2022-10-30T00:41:28.863Z,9.63
2022-10-30T00:43:57.938Z,9.68
2022-10-30T00:46:32.534Z,9.84
2022-10-30T00:49:10.160Z,9.94
2022-10-30T00:51:42.654Z,10.03
2022-10-30T00:54:12.951Z,10.04
2022-10-30T00:56:42.591Z,10.02
2022-10-30T00:59:17.154Z,10.00
2022-10-30T01:01:49.242Z,9.90
2022-10-30T01:04:25.887Z,9.95
2022-10-30T01:06:59.836Z,10.03
2022-10-30T01:09:29.401Z,10.06
2022-10-30T01:12:00.102Z,10.08
2022-10-30T01:14:29.193Z,10.14
2022-10-30T01:17:25.696Z,10.20
2022-10-30T01:20:11.371Z,10.24
2022-10-30T01:22:57.858Z,10.25
2022-10-30T01:25:47.348Z,10.29
2022-10-30T01:28:36.301Z,10.26
2022-10-30T01:31:21.662Z,10.19
2022-10-30T01:34:07.327Z,10.18
2022-10-30T01:36:44.517Z,10.18
2022-10-30T01:39:16.806Z,10.09
2022-10-30T01:41:45.917Z,10.09
2022-10-30T01:44:20.320Z,10.15
2022-10-30T01:47:24.629Z,10.10
2022-10-30T01:50:15.109Z,10.12
2022-10-30T01:52:57.418Z,10.03
2022-10-30T01:55:37.277Z,10.01
2022-10-30T01:58:21.058Z,9.99
2022-10-30T02:00:59.194Z,10.04
2022-10-30T02:03:29.273Z,9.98
2022-10-30T02:05:58.508Z,10.05
2022-10-30T02:08:29.040Z,10.10
2022-10-30T02:10:59.862Z,10.08
2022-10-30T02:13:39.632Z,10.13
2022-10-30T02:16:11.025Z,9.98
2022-10-30T02:18:40.387Z,9.90
2022-10-30T02:21:11.027Z,9.81
2022-10-30T02:23:42.779Z,9.76
2022-10-30T02:26:11.830Z,9.74
2022-10-30T02:28:40.884Z,9.68
2022-10-30T02:31:09.920Z,9.65
2022-10-30T02:33:39.090Z,9.49
2022-10-30T02:36:10.477Z,9.41
2022-10-30T02:38:40.119Z,9.39
2022-10-30T02:41:10.192Z,9.41
2022-10-30T02:43:40.542Z,9.37
2022-10-30T02:46:10.890Z,9.45
2022-10-30T02:48:39.966Z,9.52
2022-10-30T02:51:11.891Z,9.46
2022-10-30T02:53:43.539Z,9.50
2022-10-30T02:56:15.486Z,9.34
2022-10-30T02:58:45.214Z,9.26
2022-10-30T03:01:17.123Z,9.19
2022-10-30T03:03:47.766Z,9.26
2022-10-30T03:06:19.006Z,9.16
2022-10-30T03:08:48.019Z,9.13
2022-10-30T03:11:19.994Z,9.19
2022-10-30T03:13:50.775Z,9.25
2022-10-30T03:16:22.836Z,9.27
2022-10-30T03:18:52.896Z,9.20
2022-10-30T03:21:26.517Z,9.23
2022-10-30T03:23:56.098Z,9.19
2022-10-30T03:26:25.219Z,9.20
2022-10-30T03:28:59.101Z,9.11
2022-10-30T03:31:28.150Z,9.08
2022-10-30T03:34:10.449Z,9.14
2022-10-30T03:36:40.910Z,9.16
2022-10-30T03:39:10.387Z,9.10
2022-10-30T03:41:44.322Z,8.96
2022-10-30T03:44:14.639Z,8.93
2022-10-30T03:46:43.744Z,8.91
2022-10-30T03:49:36.059Z,8.88
2022-10-30T03:52:12.105Z,8.90
2022-10-30T03:54:41.205Z,8.81
2022-10-30T03:57:11.978Z,8.76
2022-10-30T03:59:57.680Z,8.79
2022-10-30T04:02:48.222Z,8.77
2022-10-30T04:05:21.254Z,8.78
2022-10-30T04:07:57.434Z,8.63
2022-10-30T04:10:27.777Z,8.46
2022-10-30T04:13:02.295Z,8.42
2022-10-30T04:15:32.718Z,8.44
2022-10-30T04:18:02.393Z,8.41
2022-10-30T04:20:32.659Z,8.35
2022-10-30T04:23:06.411Z,8.33
2022-10-30T04:25:36.640Z,8.30
2022-10-30T04:28:06.447Z,8.33
2022-10-30T04:30:36.981Z,8.25
2022-10-30T04:33:09.502Z,8.23
2022-10-30T04:35:39.205Z,8.27
2022-10-30T04:38:19.005Z,8.23
2022-10-30T04:40:49.503Z,8.17
2022-10-30T04:43:20.231Z,8.26
2022-10-30T04:45:53.938Z,8.15
2022-10-30T04:48:22.962Z,8.13
2022-10-30T04:50:51.996Z,8.04
2022-10-30T04:53:27.198Z,8.03
2022-10-30T04:56:03.040Z,7.99
2022-10-30T04:58:33.702Z,8.00
2022-10-30T05:01:07.333Z,8.08
2022-10-30T05:03:37.982Z,8.14
2022-10-30T05:06:23.333Z,8.14
2022-10-30T05:08:55.819Z,8.12
2022-10-30T05:11:45.095Z,8.04
2022-10-30T05:14:14.274Z,8.01
2022-10-30T05:16:45.984Z,7.93
2022-10-30T05:19:15.125Z,7.87
2022-10-30T05:21:51.572Z,7.84
2022-10-30T05:24:22.153Z,7.86
2022-10-30T05:26:52.141Z,7.85
2022-10-30T05:29:21.523Z,7.85
2022-10-30T05:31:50.647Z,7.94
2022-10-30T05:34:19.700Z,7.99
2022-10-30T05:36:52.251Z,8.02
2022-10-30T05:39:24.412Z,7.96
2022-10-30T05:41:54.788Z,7.96
2022-10-30T05:44:40.708Z,7.98
2022-10-30T05:47:16.550Z,8.06
2022-10-30T05:49:49.401Z,8.10
2022-10-30T05:52:21.797Z,8.00
2022-10-30T05:54:54.262Z,7.97
2022-10-30T05:57:33.236Z,8.05
2022-10-30T06:00:03.452Z,8.04
2022-10-30T06:02:34.172Z,7.97
2022-10-30T06:05:03.765Z,7.92
2022-10-30T06:07:32.887Z,7.98
2022-10-30T06:10:03.919Z,8.03
2022-10-30T06:13:07.713Z,8.17
2022-10-30T06:15:49.054Z,8.21
2022-10-30T06:18:18.176Z,8.31
2022-10-30T06:20:50.438Z,8.33
2022-10-30T06:23:25.237Z,8.39
2022-10-30T06:26:01.266Z,8.49
2022-10-30T06:28:37.230Z,8.52
2022-10-30T06:31:09.035Z,8.62
2022-10-30T06:33:40.535Z,8.71
2022-10-30T06:36:10.211Z,8.79
2022-10-30T06:38:39.574Z,8.86
2022-10-30T06:41:11.024Z,8.91
2022-10-30T06:44:00.294Z,8.97
2022-10-30T06:46:33.402Z,9.01
2022-10-30T06:49:03.391Z,9.00
2022-10-30T06:51:33.779Z,9.06
2022-10-30T06:54:04.992Z,9.13
2022-10-30T06:56:44.089Z,9.25
2022-10-30T06:59:31.356Z,9.43
2022-10-30T07:02:19.080Z,9.59
2022-10-30T07:04:55.232Z,9.73
2022-10-30T07:07:24.369Z,9.84
2022-10-30T07:09:53.827Z,9.97
2022-10-30T07:12:31.732Z,10.06
2022-10-30T07:15:13.010Z,10.10
2022-10-30T07:17:59.447Z,10.16
2022-10-30T07:20:33.562Z,10.23
2022-10-30T07:23:04.232Z,10.29
2022-10-30T07:25:34.835Z,10.43
2022-10-30T07:28:19.497Z,10.47
2022-10-30T07:31:00.890Z,10.52
2022-10-30T07:33:56.066Z,10.59
2022-10-30T07:36:44.342Z,10.63
2022-10-30T07:39:26.919Z,10.70
2022-10-30T07:42:07.324Z,10.81
2022-10-30T07:45:06.065Z,10.87
2022-10-30T07:47:42.668Z,10.90
2022-10-30T07:50:32.169Z,10.95
2022-10-30T07:53:01.863Z,10.89
2022-10-30T07:55:34.144Z,10.94
2022-10-30T07:58:15.326Z,10.98
2022-10-30T08:00:51.606Z,11.04
2022-10-30T08:03:29.097Z,11.01
2022-10-30T08:06:06.406Z,11.07
2022-10-30T08:08:42.041Z,11.15
2022-10-30T08:11:30.143Z,11.19
2022-10-30T08:14:01.795Z,11.36
2022-10-30T08:16:32.233Z,11.41
2022-10-30T08:19:01.269Z,11.48
2022-10-30T08:21:31.211Z,11.52
2022-10-30T08:24:02.599Z,11.57
2022-10-30T08:26:35.443Z,11.68
2022-10-30T08:31:54.899Z,11.73
2022-10-30T08:34:26.683Z,11.74
2022-10-30T08:36:57.678Z,11.77
2022-10-30T08:39:27.017Z,11.81
2022-10-30T08:42:02.427Z,11.86
2022-10-30T08:44:37.668Z,11.98
2022-10-30T08:47:17.110Z,12.13
2022-10-30T08:49:47.726Z,12.21
2022-10-30T08:52:20.176Z,12.27
2022-10-30T08:54:56.508Z,12.39
2022-10-30T08:57:28.099Z,12.40
2022-10-30T09:00:00.282Z,12.51
2022-10-30T09:02:57.481Z,12.63
2022-10-30T09:05:50.222Z,12.77
2022-10-30T09:08:19.479Z,12.84
2022-10-30T09:11:07.301Z,12.98
2022-10-30T09:13:37.248Z,13.00
2022-10-30T09:16:08.815Z,12.97
2022-10-30T09:18:43.172Z,12.81
2022-10-30T09:21:12.666Z,12.96
2022-10-30T09:23:48.668Z,13.06
2022-10-30T09:26:38.033Z,12.93
2022-10-30T09:29:27.615Z,13.07
2022-10-30T09:32:11.317Z,13.11
2022-10-30T09:34:53.246Z,13.01
2022-10-30T09:37:36.382Z,13.05
2022-10-30T09:40:12.650Z,13.01
2022-10-30T09:42:45.958Z,13.13
2022-10-30T09:45:49.974Z,13.39
2022-10-30T09:48:42.799Z,13.78
2022-10-30T09:51:50.145Z,13.99
2022-10-30T09:54:38.267Z,14.47
2022-10-30T09:57:21.239Z,14.67
2022-10-30T10:00:04.189Z,14.65
2022-10-30T10:03:05.249Z,14.63
2022-10-30T10:05:54.097Z,14.83
2022-10-30T10:08:56.375Z,15.03
2022-10-30T10:11:37.547Z,15.10
2022-10-30T10:14:12.643Z,15.08
2022-10-30T10:16:44.606Z,15.14
2022-10-30T10:19:21.264Z,15.22
2022-10-30T10:21:58.074Z,15.42
2022-10-30T10:24:34.288Z,15.13
2022-10-30T10:27:17.003Z,14.64
2022-10-30T10:30:00.480Z,14.75
2022-10-30T10:33:19.184Z,14.82
2022-10-30T10:36:00.952Z,15.00
2022-10-30T10:39:00.599Z,15.19
2022-10-30T10:41:57.254Z,15.14
2022-10-30T10:44:44.467Z,15.34
2022-10-30T10:48:00.991Z,15.43
2022-10-30T10:50:36.384Z,15.39
2022-10-30T10:53:12.723Z,15.39
2022-10-30T10:55:46.465Z,15.44
2022-10-30T10:58:28.722Z,15.37
2022-10-30T11:01:00.275Z,15.36
2022-10-30T11:03:40.801Z,15.33
2022-10-30T11:06:22.411Z,15.35
2022-10-30T11:08:54.710Z,15.34
2022-10-30T11:11:25.374Z,15.35
2022-10-30T11:13:57.842Z,15.32
2022-10-30T11:16:37.353Z,15.31
2022-10-30T11:19:10.479Z,15.46
2022-10-30T11:21:46.593Z,15.64
2022-10-30T11:24:30.333Z,15.89
2022-10-30T11:27:16.649Z,16.04
2022-10-30T11:29:55.433Z,16.18
2022-10-30T11:32:29.505Z,16.29
2022-10-30T11:35:04.142Z,16.44
2022-10-30T11:37:36.006Z,16.54
2022-10-30T11:40:16.812Z,16.72
2022-10-30T11:42:50.568Z,16.88
2022-10-30T11:45:27.779Z,16.97
2022-10-30T11:48:02.795Z,17.02
2022-10-30T11:50:34.529Z,16.94
2022-10-30T11:53:13.067Z,17.03
2022-10-30T11:55:48.111Z,17.03
2022-10-30T11:58:27.478Z,17.13
2022-10-30T12:01:08.797Z,17.38
2022-10-30T12:03:41.435Z,17.74
2022-10-30T12:06:18.328Z,18.09
2022-10-30T12:09:02.315Z,18.35
2022-10-30T12:11:35.098Z,18.44
2022-10-30T12:14:04.802Z,18.63
2022-10-30T12:16:36.623Z,18.88
2022-10-30T12:19:15.327Z,19.34
2022-10-30T12:21:49.979Z,19.58
2022-10-30T12:24:26.516Z,19.81
2022-10-30T12:27:11.680Z,19.56
2022-10-30T12:30:07.774Z,19.14
2022-10-30T12:32:51.495Z,18.99
2022-10-30T12:35:42.127Z,19.22
2022-10-30T12:38:24.464Z,19.06
2022-10-30T12:41:07.337Z,18.90
2022-10-30T12:43:37.541Z,19.13
2022-10-30T12:46:28.602Z,19.26
2022-10-30T12:49:12.910Z,19.51
2022-10-30T12:51:52.386Z,19.47
2022-10-30T12:54:31.311Z,19.35
2022-10-30T12:57:09.563Z,19.58
2022-10-30T12:59:49.918Z,19.48
2022-10-30T13:02:39.469Z,19.71
2022-10-30T13:05:26.820Z,19.89
2022-10-30T13:08:08.290Z,19.74
2022-10-30T13:10:43.984Z,19.84
2022-10-30T13:13:17.828Z,20.45
2022-10-30T13:15:51.576Z,20.92
2022-10-30T13:18:23.555Z,21.14
2022-10-30T13:21:22.024Z,22.11
2022-10-30T13:23:54.181Z,22.13
2022-10-30T13:26:32.199Z,21.72
2022-10-30T13:29:16.862Z,21.66
2022-10-30T13:31:59.629Z,21.99
2022-10-30T13:34:40.542Z,22.58
2022-10-30T13:37:19.518Z,22.84
2022-10-30T13:40:05.579Z,22.90
2022-10-30T13:42:51.923Z,22.92
2022-10-30T13:45:53.691Z,23.35
2022-10-30T13:48:35.562Z,23.51
2022-10-30T13:51:38.744Z,23.89
2022-10-30T13:54:20.351Z,23.95
2022-10-30T13:56:51.663Z,25.03
2022-10-30T13:59:43.768Z,25.94
2022-10-30T14:02:28.878Z,26.99
2022-10-30T14:05:07.268Z,26.92
2022-10-30T14:07:46.736Z,26.49
2022-10-30T14:10:30.514Z,25.47
2022-10-30T14:13:27.951Z,24.76
2022-10-30T14:16:01.524Z,24.68
2022-10-30T14:18:47.383Z,25.03
2022-10-30T14:21:40.936Z,25.11
2022-10-30T14:24:23.682Z,25.06
2022-10-30T14:27:10.180Z,24.83
2022-10-30T14:29:49.711Z,24.13
2022-10-30T14:32:50.723Z,23.68
2022-10-30T14:35:41.397Z,23.56
2022-10-30T14:38:28.869Z,23.54
2022-10-30T14:41:49.774Z,23.52
2022-10-30T14:44:50.621Z,22.69
2022-10-30T14:47:41.774Z,21.65
2022-10-30T14:50:29.182Z,20.83
2022-10-30T14:53:48.955Z,20.15
2022-10-30T14:56:34.298Z,19.64
2022-10-30T14:59:36.018Z,19.24
2022-10-30T15:02:35.973Z,18.92
2022-10-30T15:05:33.781Z,18.53
2022-10-30T15:08:22.831Z,18.16
2022-10-30T15:11:17.872Z,17.73
2022-10-30T15:13:54.758Z,17.33
2022-10-30T15:16:35.582Z,17.01
2022-10-30T15:19:24.808Z,16.74
2022-10-30T15:22:13.756Z,16.46
2022-10-30T15:24:43.293Z,16.27
2022-10-30T15:27:21.959Z,16.00
2022-10-30T15:29:56.699Z,15.75
2022-10-30T15:32:27.871Z,15.49
2022-10-30T15:35:01.221Z,15.30
2022-10-30T15:37:40.957Z,15.01
2022-10-30T15:40:19.673Z,14.77
2022-10-30T15:42:53.116Z,14.59
2022-10-30T15:45:26.253Z,14.38
2022-10-30T15:48:05.538Z,14.22
2022-10-30T15:50:37.645Z,13.99
2022-10-30T15:53:07.168Z,13.85
2022-10-30T15:55:54.307Z,13.69
2022-10-30T15:58:38.100Z,13.56
2022-10-30T16:01:24.761Z,13.50
2022-10-30T16:03:56.505Z,13.37
2022-10-30T16:06:28.363Z,13.26
2022-10-30T16:08:58.200Z,13.13
2022-10-30T16:11:28.135Z,13.04
2022-10-30T16:13:58.463Z,12.95
2022-10-30T16:16:32.378Z,12.86
2022-10-30T16:19:06.117Z,12.76
2022-10-30T16:21:35.696Z,12.71
2022-10-30T16:24:06.074Z,12.63
2022-10-30T16:26:38.221Z,12.56
2022-10-30T16:29:27.329Z,12.49
2022-10-30T16:31:57.929Z,12.37
2022-10-30T16:34:35.333Z,12.30
2022-10-30T16:37:15.691Z,12.22
2022-10-30T16:39:45.626Z,12.13
2022-10-30T16:42:22.142Z,12.07
2022-10-30T16:44:51.909Z,11.96
2022-10-30T16:47:27.004Z,11.85
2022-10-30T16:50:01.716Z,11.84
2022-10-30T16:52:50.980Z,11.77
2022-10-30T16:55:23.484Z,11.74
2022-10-30T16:58:08.149Z,11.68
2022-10-30T17:00:38.144Z,11.64
2022-10-30T17:03:12.398Z,11.62
2022-10-30T17:05:44.948Z,11.57
2022-10-30T17:08:37.206Z,11.51
2022-10-30T17:11:09.728Z,11.43
2022-10-30T17:15:07.292Z,11.16
2022-10-30T17:27:08.890Z,10.93
2022-10-30T17:29:53.352Z,10.90
2022-10-30T17:32:28.521Z,10.91
2022-10-30T17:35:03.420Z,10.81
2022-10-30T17:37:34.981Z,10.77
2022-10-30T17:40:07.463Z,10.70
2022-10-30T17:42:38.305Z,10.66
2022-10-30T17:45:13.787Z,10.64
2022-10-30T17:47:43.446Z,10.60
2022-10-30T17:50:15.112Z,10.54
2022-10-30T17:52:44.332Z,10.49
2022-10-30T17:55:27.807Z,10.38
2022-10-30T17:57:58.709Z,10.24
2022-10-30T18:00:29.393Z,10.20
2022-10-30T18:02:58.919Z,10.25
2022-10-30T18:05:31.405Z,10.30
2022-10-30T18:08:00.568Z,10.31
2022-10-30T18:10:31.540Z,10.24
2022-10-30T18:13:21.299Z,10.17
2022-10-30T18:15:57.427Z,10.14
2022-10-30T18:18:54.383Z,10.13
2022-10-30T18:21:27.554Z,10.11
2022-10-30T18:23:57.051Z,9.95
2022-10-30T18:26:53.970Z,9.89
2022-10-30T18:29:25.175Z,9.85
2022-10-30T18:32:19.396Z,9.78
2022-10-30T18:34:49.662Z,9.71
2022-10-30T18:37:20.908Z,9.56
2022-10-30T18:39:50.198Z,9.60
2022-10-30T18:42:19.766Z,9.59
2022-10-30T18:44:51.793Z,9.58
2022-10-30T18:47:21.424Z,9.56
2022-10-30T18:49:51.447Z,9.54
2022-10-30T18:52:23.365Z,9.47
2022-10-30T18:54:54.418Z,9.50
2022-10-30T18:57:24.761Z,9.49
2022-10-30T18:59:56.447Z,9.50
2022-10-30T19:03:45.341Z,9.48
2022-10-30T19:06:21.980Z,9.38
2022-10-30T19:09:20.379Z,9.39
2022-10-30T19:11:49.469Z,9.41
2022-10-30T19:14:37.174Z,9.40
2022-10-30T19:17:32.776Z,9.30
2022-10-30T19:20:10.565Z,9.27
2022-10-30T19:22:39.907Z,9.23
2022-10-30T19:25:19.599Z,9.20
2022-10-30T19:27:49.179Z,9.12
2022-10-30T19:30:23.175Z,9.05
2022-10-30T19:32:53.799Z,9.05
2022-10-30T19:35:27.330Z,9.02
2022-10-30T19:37:57.649Z,8.97
2022-10-30T19:40:33.529Z,9.01
2022-10-30T19:43:04.236Z,9.10
2022-10-30T19:45:35.455Z,9.17
2022-10-30T19:48:17.726Z,9.19
2022-10-30T19:50:50.430Z,9.23
2022-10-30T19:53:19.746Z,9.30
2022-10-30T19:55:52.861Z,9.33
2022-10-30T19:58:26.011Z,9.38
2022-10-30T20:00:55.809Z,9.52
2022-10-30T20:03:27.385Z,9.60
2022-10-30T20:05:57.117Z,9.68
2022-10-30T20:08:28.105Z,9.72
2022-10-30T20:10:59.784Z,9.72
2022-10-30T20:13:33.592Z,9.78
2022-10-30T20:16:05.347Z,9.74
2022-10-30T20:18:37.683Z,9.79
2022-10-30T20:21:09.302Z,9.83
2022-10-30T20:23:38.684Z,9.88
2022-10-30T20:26:25.452Z,9.84
2022-10-30T20:28:55.824Z,9.79
2022-10-30T20:31:25.379Z,9.76
2022-10-30T20:33:56.045Z,9.73
2022-10-30T20:36:29.457Z,9.79
2022-10-30T20:38:58.552Z,9.84
2022-10-30T20:41:32.944Z,9.86
2022-10-30T20:44:05.495Z,9.85
2022-10-30T20:46:35.713Z,9.85
2022-10-30T20:49:17.916Z,9.85
2022-10-30T20:51:50.218Z,9.86
2022-10-30T20:54:19.930Z,9.85
2022-10-30T20:56:49.512Z,9.87
2022-10-30T20:59:19.772Z,9.87
2022-10-30T21:01:50.858Z,9.89
2022-10-30T21:04:21.911Z,9.92
2022-10-30T21:06:50.992Z,9.91
2022-10-30T21:09:20.283Z,9.90
2022-10-30T21:11:57.060Z,9.91
2022-10-30T21:14:26.387Z,9.91
2022-10-30T21:16:55.524Z,9.86
2022-10-30T21:19:27.641Z,9.88
2022-10-30T21:21:56.765Z,9.89
2022-10-30T21:24:26.025Z,9.91
2022-10-30T21:26:56.544Z,9.83
2022-10-30T21:29:25.701Z,9.76
2022-10-30T21:31:54.868Z,9.76
2022-10-30T21:34:23.997Z,9.74
2022-10-30T21:36:54.498Z,9.71
2022-10-30T21:39:23.619Z,9.73
2022-10-30T21:41:52.722Z,9.71
2022-10-30T21:44:21.873Z,9.63
2022-10-30T21:46:51.836Z,9.64
2022-10-30T21:49:20.987Z,9.70
2022-10-30T21:51:51.528Z,9.66
2022-10-30T21:54:22.639Z,9.71
2022-10-30T21:56:51.707Z,9.77
2022-10-30T21:59:24.271Z,9.77
2022-10-30T22:01:53.840Z,9.65
2022-10-30T22:04:23.205Z,9.54
2022-10-30T22:06:52.447Z,9.53
2022-10-30T22:09:22.978Z,9.46
2022-10-30T22:11:52.056Z,9.52
2022-10-30T22:14:21.145Z,9.51
2022-10-30T22:16:50.262Z,9.50
2022-10-30T22:19:19.589Z,9.52
2022-10-30T22:21:51.501Z,9.47
2022-10-30T22:24:22.746Z,9.36
2022-10-30T22:26:51.983Z,9.30
2022-10-30T22:29:21.107Z,9.38
2022-10-30T22:31:54.030Z,9.43
2022-10-30T22:34:23.268Z,9.55
2022-10-30T22:36:52.330Z,9.52
2022-10-30T22:39:22.963Z,9.53
2022-10-30T22:41:52.056Z,9.51
2022-10-30T22:44:23.043Z,9.53
2022-10-30T22:46:52.747Z,9.46
2022-10-30T22:49:21.860Z,9.45
2022-10-30T22:51:51.025Z,9.36
2022-10-30T22:54:20.087Z,9.46
2022-10-30T22:56:50.664Z,9.48
2022-10-30T22:59:19.761Z,9.40
2022-10-30T23:01:49.115Z,9.43
2022-10-30T23:04:18.517Z,9.33
2022-10-30T23:06:50.752Z,9.37
2022-10-30T23:09:22.235Z,9.37
2022-10-30T23:11:52.843Z,9.35
2022-10-30T23:14:22.017Z,9.35
2022-10-30T23:16:51.159Z,9.29
2022-10-30T23:19:20.370Z,9.21
2022-10-30T23:21:49.470Z,9.17
2022-10-30T23:24:18.719Z,9.10
2022-10-30T23:26:47.999Z,9.14
2022-10-30T23:29:18.872Z,9.01
2022-10-30T23:31:51.343Z,8.95
2022-10-30T23:34:20.482Z,8.86
2022-10-30T23:36:49.599Z,8.76
2022-10-30T23:39:19.357Z,8.71
2022-10-30T23:41:51.238Z,8.72
2022-10-30T23:44:21.992Z,8.69
2022-10-30T23:46:51.093Z,8.69
2022-10-30T23:49:20.180Z,8.71
2022-10-30T23:51:49.216Z,8.72
2022-10-30T23:54:18.342Z,8.74
2022-10-30T23:56:47.516Z,8.78
2022-10-30T23:59:17.536Z,8.58
